DTTF/GAF METAR and TAF weather

Enter ICAO airport designator
Station Type Date Time Source
DTTF METAR 2022/09/26 10:00 UTC NOAA

DTTF 261000Z 24004KT 180V300 9999 BKN030 30/12 Q1013


Station Type Date Time Source
DTTF Decoded METAR 2022/09/26 10:00 UTC NOAA

Gafsa, Tunisia (DTTF) 34-25N 008-49E 314M
Sep 26, 2022 - 06:00 AM EDT / 2022.09.26 1000 UTC
Wind: from the WSW (240 degrees) at 5 MPH (4 KT) (direction variable):0
Visibility: greater than 7 mile(s):0
Sky conditions: mostly cloudy
Temperature: 86 F (30 C)
Dew Point: 53 F (12 C)
Relative Humidity: 33%
Pressure (altimeter): 29.91 in. Hg (1013 hPa)
ob: DTTF 261000Z 24004KT 180V300 9999 BKN030 30/12 Q1013
cycle: 10

Station Type Date Time Source
DTTF TAF 2022/02/16 10:30 UTC NOAA

TAF DTTF 160900Z 1610/1622 VRB03KT 9999 FEW033
BECMG 1610/1612 22010KT
BECMG 1619/1621 28005KT

Example: see airport list